createdAt,value
2023-04-25T00:01:58.684Z,6.72
2023-04-25T00:04:26.657Z,6.70
2023-04-25T00:06:56.949Z,7.47
2023-04-25T00:09:23.751Z,6.60
2023-04-25T00:11:50.754Z,6.93
2023-04-25T00:14:17.817Z,6.53
2023-04-25T00:16:45.042Z,7.60
2023-04-25T00:19:12.398Z,7.50
2023-04-25T00:21:41.464Z,7.87
2023-04-25T00:24:08.575Z,7.00
2023-04-25T00:26:36.955Z,7.83
2023-04-25T00:29:03.863Z,7.27
2023-04-25T00:31:31.542Z,7.67
2023-04-25T00:33:58.367Z,7.07
2023-04-25T00:36:26.875Z,7.85
2023-04-25T00:38:54.764Z,6.65
2023-04-25T00:41:22.032Z,7.00
2023-04-25T00:43:50.767Z,6.72
2023-04-25T00:46:18.051Z,5.97
2023-04-25T00:48:44.804Z,6.45
2023-04-25T00:51:16.952Z,6.13
2023-04-25T00:53:44.198Z,6.33
2023-04-25T00:56:11.603Z,5.88
2023-04-25T00:58:39.270Z,5.50
2023-04-25T01:01:07.876Z,5.70
2023-04-25T01:03:36.678Z,5.88
2023-04-25T01:06:04.187Z,5.50
2023-04-25T01:08:31.343Z,5.22
2023-04-25T01:10:58.314Z,5.30
2023-04-25T01:13:25.216Z,5.60
2023-04-25T01:15:53.359Z,5.03
2023-04-25T01:18:21.519Z,4.90
2023-04-25T01:20:51.920Z,5.37
2023-04-25T01:23:20.692Z,5.13
2023-04-25T01:25:48.859Z,5.60
2023-04-25T01:28:16.503Z,5.70
2023-04-25T01:30:44.500Z,5.17
2023-04-25T01:33:14.000Z,5.27
2023-04-25T01:35:41.353Z,4.87
2023-04-25T01:38:08.178Z,5.17
2023-04-25T01:40:36.144Z,5.50
2023-04-25T01:43:03.025Z,5.30
2023-04-25T01:45:30.574Z,5.63
2023-04-25T01:48:00.376Z,5.83
2023-04-25T01:50:27.650Z,4.78
2023-04-25T01:52:55.055Z,5.57
2023-04-25T01:55:22.360Z,4.77
2023-04-25T01:58:00.683Z,5.73
2023-04-25T02:00:44.065Z,4.87
2023-04-25T02:03:11.187Z,4.87
2023-04-25T02:05:39.811Z,5.83
2023-04-25T02:08:09.982Z,4.50
2023-04-25T02:10:37.592Z,4.67
2023-04-25T02:13:14.354Z,4.67
2023-04-25T02:15:49.070Z,4.63
2023-04-25T02:18:18.499Z,4.43
2023-04-25T02:20:46.381Z,4.50
2023-04-25T02:23:13.526Z,4.63
2023-04-25T02:25:40.508Z,4.27
2023-04-25T02:28:07.358Z,4.37
2023-04-25T02:30:34.487Z,3.90
2023-04-25T02:33:01.341Z,5.30
2023-04-25T02:35:29.938Z,4.57
2023-04-25T02:37:56.731Z,4.73
2023-04-25T02:40:23.828Z,4.15
2023-04-25T02:42:50.686Z,3.70
2023-04-25T02:45:19.539Z,4.10
2023-04-25T02:47:46.355Z,4.30
2023-04-25T02:50:13.359Z,4.10
2023-04-25T02:52:41.324Z,4.17
2023-04-25T02:55:14.960Z,3.90
2023-04-25T02:57:43.063Z,3.70
2023-04-25T03:00:15.339Z,3.73
2023-04-25T03:02:42.220Z,3.57
2023-04-25T03:05:09.921Z,4.13
2023-04-25T03:07:37.398Z,3.57
2023-04-25T03:10:04.690Z,3.70
2023-04-25T03:12:33.263Z,3.50
2023-04-25T03:15:00.476Z,3.43
2023-04-25T03:17:27.349Z,3.10
2023-04-25T03:19:54.500Z,3.30
2023-04-25T03:22:22.234Z,3.07
2023-04-25T03:24:49.357Z,2.70
2023-04-25T03:27:16.380Z,3.07
2023-04-25T03:29:43.394Z,3.00
2023-04-25T03:32:10.892Z,2.23
2023-04-25T03:34:37.968Z,2.63
2023-04-25T03:37:05.173Z,2.63
2023-04-25T03:39:36.845Z,2.77
2023-04-25T03:42:03.968Z,2.33
2023-04-25T03:44:31.522Z,2.43
2023-04-25T03:46:59.968Z,2.60
2023-04-25T03:49:27.099Z,2.40
2023-04-25T03:52:04.516Z,2.00
2023-04-25T03:54:37.051Z,2.03
2023-04-25T03:57:14.001Z,1.90
2023-04-25T03:59:41.170Z,2.00
2023-04-25T04:02:10.828Z,2.20
2023-04-25T04:04:38.867Z,1.77
2023-04-25T04:07:06.727Z,1.70
2023-04-25T04:09:44.211Z,2.07
2023-04-25T04:12:18.235Z,2.37
2023-04-25T04:14:45.963Z,1.67
2023-04-25T04:17:12.680Z,1.87
2023-04-25T04:19:39.794Z,1.93
2023-04-25T04:22:12.937Z,2.07
2023-04-25T04:24:41.386Z,1.67
2023-04-25T04:27:10.700Z,1.50
2023-04-25T04:29:54.252Z,1.80
2023-04-25T04:32:31.761Z,1.60
2023-04-25T04:35:00.645Z,2.17
2023-04-25T04:37:27.678Z,1.40
2023-04-25T04:39:54.790Z,1.77
2023-04-25T04:42:33.765Z,1.50
2023-04-25T04:45:15.565Z,1.50
2023-04-25T04:47:49.747Z,2.00
2023-04-25T04:50:39.877Z,1.90
2023-04-25T04:53:15.655Z,1.70
2023-04-25T04:55:56.992Z,2.10
2023-04-25T04:58:53.520Z,2.00
2023-04-25T05:01:36.216Z,1.77
2023-04-25T05:04:12.493Z,2.10
2023-04-25T05:07:02.703Z,1.87
2023-04-25T05:09:32.311Z,2.07
2023-04-25T05:12:19.551Z,2.17
2023-04-25T05:14:52.072Z,1.80
2023-04-25T05:17:51.962Z,2.53
2023-04-25T05:20:25.917Z,1.87
2023-04-25T05:23:22.479Z,2.27
2023-04-25T05:26:02.764Z,2.00
2023-04-25T05:28:47.132Z,2.27
2023-04-25T05:31:25.658Z,2.30
2023-04-25T05:33:59.192Z,2.23
2023-04-25T05:36:34.585Z,2.47
2023-04-25T05:39:01.566Z,2.50
2023-04-25T05:42:06.848Z,2.43
2023-04-25T05:44:52.762Z,2.10
2023-04-25T05:47:32.334Z,2.50
2023-04-25T05:50:10.448Z,2.00
2023-04-25T05:52:53.076Z,2.60
2023-04-25T05:55:31.059Z,2.47
2023-04-25T05:57:59.759Z,2.30
2023-04-25T06:00:27.259Z,2.80
2023-04-25T06:02:54.153Z,3.40
2023-04-25T06:05:21.499Z,2.87
2023-04-25T06:07:48.553Z,3.07
2023-04-25T06:10:16.049Z,2.90
2023-04-25T06:12:43.357Z,2.63
2023-04-25T06:15:24.532Z,3.10
2023-04-25T06:17:54.879Z,2.67
2023-04-25T06:20:25.004Z,3.40
2023-04-25T06:22:53.624Z,2.67
2023-04-25T06:25:24.229Z,2.50
2023-04-25T06:27:51.476Z,2.70
2023-04-25T06:30:23.356Z,2.13
2023-04-25T06:32:53.967Z,2.47
2023-04-25T06:35:21.890Z,2.75
2023-04-25T06:37:50.483Z,2.40
2023-04-25T06:40:20.745Z,2.60
2023-04-25T06:42:47.520Z,2.47
2023-04-25T06:45:48.657Z,3.10
2023-04-25T06:48:16.640Z,2.30
2023-04-25T06:50:44.012Z,2.30
2023-04-25T06:53:12.654Z,2.47
2023-04-25T06:55:41.362Z,2.33
2023-04-25T06:58:13.755Z,2.42
2023-04-25T07:01:13.226Z,2.75
2023-04-25T07:03:40.620Z,3.70
2023-04-25T07:06:13.985Z,2.78
2023-04-25T07:08:40.828Z,2.40
2023-04-25T07:11:08.018Z,3.65
2023-04-25T07:13:37.440Z,2.72
2023-04-25T07:16:05.089Z,2.67
2023-04-25T07:18:34.321Z,59.22
2023-04-25T07:21:02.373Z,4.75
2023-04-25T07:23:30.049Z,2.17
2023-04-25T07:25:59.591Z,2.63
2023-04-25T07:28:27.328Z,2.45
2023-04-25T07:30:54.314Z,2.10
2023-04-25T07:33:21.599Z,2.53
2023-04-25T07:35:48.785Z,2.08
2023-04-25T07:38:15.668Z,2.20
2023-04-25T07:40:42.822Z,1.80
2023-04-25T07:43:15.264Z,2.25
2023-04-25T07:45:49.790Z,1.88
2023-04-25T07:48:22.076Z,1.70
2023-04-25T07:50:51.444Z,1.95
2023-04-25T07:53:19.321Z,1.80
2023-04-25T07:55:52.696Z,1.50
2023-04-25T07:58:22.867Z,2.08
2023-04-25T08:00:54.640Z,2.00
2023-04-25T08:03:46.314Z,1.88
2023-04-25T08:06:24.649Z,2.22
2023-04-25T08:09:03.934Z,1.85
2023-04-25T08:11:37.359Z,1.92
2023-04-25T08:14:04.959Z,1.98
2023-04-25T08:16:33.573Z,2.15
2023-04-25T08:19:01.741Z,2.33
2023-04-25T08:21:28.771Z,2.00
2023-04-25T08:23:59.503Z,2.70
2023-04-25T08:26:30.413Z,2.38
2023-04-25T08:28:58.280Z,2.30
2023-04-25T08:31:25.259Z,1.83
2023-04-25T08:34:00.984Z,9.52
2023-04-25T08:36:39.423Z,3.22
2023-04-25T08:39:19.264Z,3.27
2023-04-25T08:42:08.715Z,2.17
2023-04-25T08:44:36.328Z,2.30
2023-04-25T08:47:07.071Z,3.43
2023-04-25T08:49:47.039Z,3.57
2023-04-25T08:52:15.785Z,3.03
2023-04-25T08:54:49.135Z,2.53
2023-04-25T08:57:18.264Z,3.50
2023-04-25T08:59:47.760Z,2.65
2023-04-25T09:02:17.680Z,2.28
2023-04-25T09:04:47.789Z,2.97
2023-04-25T09:07:19.441Z,2.40
2023-04-25T09:09:46.319Z,2.60
2023-04-25T09:12:16.076Z,2.30
2023-04-25T09:14:43.916Z,3.03
2023-04-25T09:17:27.233Z,3.17
2023-04-25T09:20:06.794Z,2.50
2023-04-25T09:22:34.700Z,2.50
2023-04-25T09:25:05.527Z,2.35
2023-04-25T09:27:32.715Z,1.80
2023-04-25T09:30:08.632Z,2.90
2023-04-25T09:33:11.633Z,2.57
2023-04-25T09:35:43.363Z,1.90
2023-04-25T09:38:19.136Z,1.80
2023-04-25T09:40:59.940Z,2.13
2023-04-25T09:43:40.857Z,1.90
2023-04-25T09:46:12.456Z,1.60
2023-04-25T09:48:50.319Z,2.15
2023-04-25T09:51:19.461Z,2.42
2023-04-25T09:53:51.846Z,1.67
2023-04-25T09:56:37.902Z,1.60
2023-04-25T09:59:08.143Z,1.83
2023-04-25T10:01:39.334Z,2.30
2023-04-25T10:04:17.180Z,1.90
2023-04-25T10:06:54.451Z,2.20
2023-04-25T10:09:26.040Z,2.23
2023-04-25T10:11:53.953Z,2.20
2023-04-25T10:14:21.458Z,2.80
2023-04-25T10:16:48.847Z,2.43
2023-04-25T10:19:16.754Z,2.20
2023-04-25T10:22:06.999Z,3.00
2023-04-25T10:24:36.246Z,3.60
2023-04-25T10:27:03.336Z,2.80
2023-04-25T10:29:30.337Z,2.50
2023-04-25T10:31:58.108Z,2.70
2023-04-25T10:34:39.705Z,2.83
2023-04-25T10:37:09.918Z,1.90
2023-04-25T10:39:38.842Z,1.93
2023-04-25T10:42:05.624Z,2.07
2023-04-25T10:44:32.823Z,1.67
2023-04-25T10:47:01.746Z,1.83
2023-04-25T10:49:36.143Z,1.80
2023-04-25T10:52:17.874Z,1.17
2023-04-25T10:54:49.834Z,1.60
2023-04-25T10:57:32.137Z,1.50
2023-04-25T11:00:06.237Z,1.47
2023-04-25T11:02:37.846Z,1.90
2023-04-25T11:05:05.730Z,2.33
2023-04-25T11:07:39.798Z,2.27
2023-04-25T11:10:07.359Z,1.90
2023-04-25T11:12:34.260Z,1.70
2023-04-25T11:15:08.507Z,1.88
2023-04-25T11:17:36.310Z,1.90
2023-04-25T11:20:08.333Z,2.00
2023-04-25T11:22:35.205Z,1.70
2023-04-25T11:25:06.765Z,1.83
2023-04-25T11:27:33.602Z,2.13
2023-04-25T11:30:11.163Z,2.07
2023-04-25T11:32:38.212Z,2.57
2023-04-25T11:35:07.062Z,2.43
2023-04-25T11:37:35.110Z,2.40
2023-04-25T11:40:03.080Z,3.50
2023-04-25T11:42:31.074Z,2.70
2023-04-25T11:44:58.118Z,2.70
2023-04-25T11:47:32.267Z,2.60
2023-04-25T11:50:00.795Z,2.70
2023-04-25T11:52:44.903Z,2.63
2023-04-25T11:55:19.877Z,2.67
2023-04-25T11:57:50.393Z,2.50
2023-04-25T12:00:22.385Z,2.30
2023-04-25T12:02:54.015Z,2.27
2023-04-25T12:07:54.294Z,2.40
2023-04-25T12:10:21.714Z,2.70
2023-04-25T12:12:49.245Z,2.30
2023-04-25T12:15:27.040Z,2.53
2023-04-25T12:17:55.979Z,2.70
2023-04-25T12:20:26.852Z,3.00
2023-04-25T12:22:54.321Z,2.87
2023-04-25T12:25:42.884Z,3.27
2023-04-25T12:28:17.195Z,2.97
2023-04-25T12:30:59.064Z,3.13
2023-04-25T12:33:27.930Z,2.33
2023-04-25T12:35:56.006Z,2.45
2023-04-25T12:38:24.360Z,2.87
2023-04-25T12:40:51.754Z,2.53
2023-04-25T12:43:19.011Z,2.83
2023-04-25T12:45:48.828Z,2.53
2023-04-25T12:48:15.790Z,2.63
2023-04-25T12:50:43.387Z,2.50
2023-04-25T12:53:10.776Z,2.65
2023-04-25T12:55:38.047Z,2.30
2023-04-25T12:58:04.837Z,2.10
2023-04-25T13:00:32.845Z,2.70
2023-04-25T13:03:00.399Z,2.60
2023-04-25T13:05:27.736Z,2.13
2023-04-25T13:07:54.635Z,2.33
2023-04-25T13:10:22.325Z,2.13
2023-04-25T13:12:49.134Z,1.88
2023-04-25T13:15:16.696Z,1.70
2023-04-25T13:17:43.757Z,1.88
2023-04-25T13:20:11.452Z,1.92
2023-04-25T13:22:39.884Z,1.48
2023-04-25T13:25:08.509Z,2.13
2023-04-25T13:27:36.786Z,2.28
2023-04-25T13:30:08.560Z,2.40
2023-04-25T13:32:39.487Z,2.33
2023-04-25T13:35:11.337Z,2.50
2023-04-25T13:37:38.882Z,2.75
2023-04-25T13:40:10.165Z,2.50
2023-04-25T13:42:40.357Z,2.90
2023-04-25T13:45:08.624Z,4.03
2023-04-25T13:47:36.314Z,2.47
2023-04-25T13:50:04.900Z,2.13
2023-04-25T13:52:31.726Z,1.95
2023-04-25T13:55:08.062Z,2.75
2023-04-25T13:57:36.169Z,2.70
2023-04-25T14:00:09.759Z,3.78
2023-04-25T14:02:37.162Z,2.22
2023-04-25T14:05:05.614Z,2.50
2023-04-25T14:07:32.627Z,3.55
2023-04-25T14:09:59.854Z,4.93
2023-04-25T14:12:27.125Z,3.50
2023-04-25T14:14:56.878Z,2.88
2023-04-25T14:17:23.593Z,3.28
2023-04-25T14:19:51.358Z,4.45
2023-04-25T14:22:18.093Z,3.38
2023-04-25T14:24:45.144Z,4.72
2023-04-25T14:27:12.340Z,4.13
2023-04-25T14:29:39.320Z,4.27
2023-04-25T14:32:06.449Z,3.38
2023-04-25T14:34:33.435Z,3.10
2023-04-25T14:37:01.305Z,2.90
2023-04-25T14:39:28.327Z,3.27
2023-04-25T14:41:55.016Z,2.42
2023-04-25T14:44:22.044Z,2.87
2023-04-25T14:46:49.038Z,3.22
2023-04-25T14:49:16.206Z,3.97
2023-04-25T14:51:42.933Z,3.50
2023-04-25T14:54:09.951Z,3.63
2023-04-25T14:56:37.117Z,3.37
2023-04-25T14:59:04.134Z,3.47
2023-04-25T15:01:30.970Z,2.50
2023-04-25T15:03:58.856Z,2.60
2023-04-25T15:06:29.639Z,2.00
2023-04-25T15:08:58.022Z,2.03
2023-04-25T15:11:24.855Z,2.00
2023-04-25T15:13:52.223Z,1.93
2023-04-25T15:16:19.313Z,2.87
2023-04-25T15:18:46.318Z,2.70
2023-04-25T15:21:13.107Z,2.80
2023-04-25T15:23:40.217Z,3.20
2023-04-25T15:26:07.072Z,3.70
2023-04-25T15:28:34.673Z,4.70
2023-04-25T15:31:01.653Z,4.53
2023-04-25T15:33:28.715Z,4.80
2023-04-25T15:35:55.411Z,4.63
2023-04-25T15:38:22.491Z,4.33
2023-04-25T15:40:49.288Z,3.50
2023-04-25T15:43:17.303Z,3.70
2023-04-25T15:45:44.188Z,3.90
2023-04-25T15:48:11.876Z,3.93
2023-04-25T15:50:39.004Z,3.80
2023-04-25T15:53:07.273Z,4.87
2023-04-25T15:55:34.924Z,5.10
2023-04-25T15:58:01.965Z,4.40
2023-04-25T16:00:29.485Z,5.03
2023-04-25T16:02:56.784Z,4.53
2023-04-25T16:05:23.956Z,4.07
2023-04-25T16:07:53.703Z,4.63
2023-04-25T16:10:21.670Z,5.40
2023-04-25T16:12:50.160Z,5.40
2023-04-25T16:15:17.822Z,4.90
2023-04-25T16:17:44.980Z,4.53
2023-04-25T16:20:13.479Z,4.27
2023-04-25T16:22:41.831Z,5.43
2023-04-25T16:25:09.353Z,6.83
2023-04-25T16:27:39.923Z,8.57
2023-04-25T16:30:11.614Z,11.23
2023-04-25T16:32:39.965Z,17.53
2023-04-25T16:35:07.574Z,21.80
2023-04-25T16:37:34.702Z,28.20
2023-04-25T16:40:01.427Z,22.87
2023-04-25T16:42:28.547Z,22.20
2023-04-25T16:44:56.032Z,9.33
2023-04-25T16:47:23.088Z,5.50
2023-04-25T16:49:50.802Z,5.43
2023-04-25T16:52:17.836Z,5.30
2023-04-25T16:54:44.521Z,6.10
2023-04-25T16:57:13.717Z,6.47
2023-04-25T16:59:40.435Z,6.70
2023-04-25T17:02:12.304Z,6.13
2023-04-25T17:04:39.779Z,6.43
2023-04-25T17:07:08.148Z,7.13
2023-04-25T17:09:35.096Z,6.60
2023-04-25T17:12:03.779Z,10.37
2023-04-25T17:14:32.419Z,11.43
2023-04-25T17:16:59.599Z,10.80
2023-04-25T17:19:26.572Z,9.37
2023-04-25T17:21:53.714Z,8.07
2023-04-25T17:24:21.899Z,6.50
2023-04-25T17:26:49.140Z,5.53
2023-04-25T17:29:16.089Z,6.00
2023-04-25T17:31:44.348Z,5.17
2023-04-25T17:34:16.417Z,6.33
2023-04-25T17:36:44.994Z,7.27
2023-04-25T17:39:11.751Z,10.20
2023-04-25T17:41:38.933Z,10.43
2023-04-25T17:44:05.746Z,10.23
2023-04-25T17:46:33.107Z,10.80
2023-04-25T17:48:59.938Z,8.27
2023-04-25T17:51:27.404Z,7.93
2023-04-25T17:53:54.176Z,8.87
2023-04-25T17:56:27.268Z,8.87
2023-04-25T17:58:54.942Z,10.73
2023-04-25T18:01:22.527Z,11.37
2023-04-25T18:03:50.176Z,8.97
2023-04-25T18:06:18.294Z,10.90
2023-04-25T18:08:45.929Z,11.77
2023-04-25T18:11:13.100Z,10.97
2023-04-25T18:13:40.729Z,9.37
2023-04-25T18:16:08.204Z,9.23
2023-04-25T18:18:36.159Z,9.67
2023-04-25T18:21:05.604Z,9.77
2023-04-25T18:23:36.557Z,7.63
2023-04-25T18:26:04.311Z,7.20
2023-04-25T18:28:31.231Z,8.23
2023-04-25T18:30:58.177Z,7.80
2023-04-25T18:33:25.246Z,6.63
2023-04-25T18:38:34.910Z,6.03
2023-04-25T18:41:26.945Z,5.87
2023-04-25T18:43:58.587Z,6.40
2023-04-25T18:46:25.767Z,5.37
2023-04-25T18:48:53.845Z,6.87
2023-04-25T18:51:23.460Z,6.33
2023-04-25T18:53:50.508Z,6.87
2023-04-25T18:56:20.949Z,7.00
2023-04-25T18:58:47.971Z,7.30
2023-04-25T19:01:15.380Z,6.67
2023-04-25T19:03:42.318Z,7.63
2023-04-25T19:06:09.510Z,8.23
2023-04-25T19:08:36.764Z,7.93
2023-04-25T19:11:17.937Z,8.40
2023-04-25T19:13:48.492Z,9.60
2023-04-25T19:16:17.379Z,11.17
2023-04-25T19:18:44.584Z,11.73
2023-04-25T19:21:11.803Z,11.13
2023-04-25T19:23:38.631Z,11.50
2023-04-25T19:26:05.788Z,11.57
2023-04-25T19:28:32.752Z,10.27
2023-04-25T19:30:59.833Z,12.30
2023-04-25T19:33:26.621Z,11.73
2023-04-25T19:35:54.159Z,10.27
2023-04-25T19:38:21.267Z,10.07
2023-04-25T19:40:49.163Z,7.77
2023-04-25T19:43:15.924Z,7.07
2023-04-25T19:45:43.034Z,7.07
2023-04-25T19:48:10.391Z,7.83
2023-04-25T19:50:37.643Z,6.80
2023-04-25T19:53:04.450Z,6.80
2023-04-25T19:55:31.978Z,6.60
2023-04-25T19:57:58.707Z,6.60
2023-04-25T20:00:25.779Z,6.77
2023-04-25T20:02:52.674Z,7.47
2023-04-25T20:05:19.798Z,7.73
2023-04-25T20:07:46.754Z,6.30
2023-04-25T20:10:15.594Z,6.17
2023-04-25T20:12:42.492Z,6.03
2023-04-25T20:15:11.498Z,8.03
2023-04-25T20:17:42.527Z,8.30
2023-04-25T20:20:11.069Z,10.17
2023-04-25T20:22:40.156Z,10.87
2023-04-25T20:25:09.128Z,10.87
2023-04-25T20:27:39.493Z,11.67
2023-04-25T20:30:08.672Z,9.70
2023-04-25T20:32:36.988Z,10.67
2023-04-25T20:35:06.137Z,10.23
2023-04-25T20:37:33.257Z,10.43
2023-04-25T20:40:01.851Z,10.23
2023-04-25T20:42:28.635Z,9.17
2023-04-25T20:44:56.179Z,9.97
2023-04-25T20:47:23.462Z,10.57
2023-04-25T20:49:50.466Z,10.17
2023-04-25T20:52:17.980Z,10.00
2023-04-25T20:54:46.078Z,9.83
2023-04-25T20:57:13.010Z,12.07
2023-04-25T20:59:39.963Z,10.27
2023-04-25T21:02:08.778Z,8.80
2023-04-25T21:04:36.207Z,10.70
2023-04-25T21:07:03.252Z,9.70
2023-04-25T21:09:30.269Z,10.67
2023-04-25T21:11:57.148Z,11.00
2023-04-25T21:14:25.528Z,11.63
2023-04-25T21:16:52.383Z,12.20
2023-04-25T21:19:19.367Z,9.13
2023-04-25T21:21:46.184Z,8.77
2023-04-25T21:24:14.348Z,8.57
2023-04-25T21:26:41.122Z,9.40
2023-04-25T21:29:08.222Z,6.87
2023-04-25T21:31:36.657Z,7.63
2023-04-25T21:34:03.834Z,7.37
2023-04-25T21:36:30.606Z,6.47
2023-04-25T21:38:57.569Z,6.77
2023-04-25T21:41:25.584Z,6.37
2023-04-25T21:43:52.580Z,6.43
2023-04-25T21:46:23.751Z,6.93
2023-04-25T21:48:51.557Z,6.53
2023-04-25T21:51:18.736Z,6.87
2023-04-25T21:53:45.873Z,6.40
2023-04-25T21:56:12.623Z,8.33
2023-04-25T21:58:39.600Z,7.03
2023-04-25T22:01:06.533Z,7.07
2023-04-25T22:03:34.121Z,7.23
2023-04-25T22:06:01.221Z,6.67
2023-04-25T22:08:28.224Z,6.37
2023-04-25T22:10:57.934Z,6.20
2023-04-25T22:13:25.845Z,6.73
2023-04-25T22:15:52.835Z,6.33
2023-04-25T22:18:19.885Z,6.27
2023-04-25T22:20:46.655Z,6.43
2023-04-25T22:23:14.118Z,6.33
2023-04-25T22:25:42.009Z,5.90
2023-04-25T22:28:09.003Z,6.00
2023-04-25T22:30:37.163Z,7.20
2023-04-25T22:33:04.287Z,6.67
2023-04-25T22:35:31.042Z,6.03
2023-04-25T22:37:58.245Z,6.47
2023-04-25T22:40:24.973Z,6.57
2023-04-25T22:42:52.027Z,5.23
2023-04-25T22:45:18.884Z,5.80
2023-04-25T22:47:46.415Z,6.10
2023-04-25T22:50:16.434Z,6.53
2023-04-25T22:52:43.691Z,5.83
2023-04-25T22:55:12.447Z,6.93
2023-04-25T22:57:40.789Z,5.83
2023-04-25T23:00:16.576Z,6.70
2023-04-25T23:02:46.503Z,6.97
2023-04-25T23:05:15.077Z,5.67
2023-04-25T23:07:42.429Z,6.27
2023-04-25T23:10:09.710Z,7.17
2023-04-25T23:12:36.946Z,5.83
2023-04-25T23:15:05.177Z,6.00
2023-04-25T23:17:32.614Z,6.43
2023-04-25T23:19:59.663Z,6.50
2023-04-25T23:22:26.860Z,6.17
2023-04-25T23:24:53.934Z,5.60
2023-04-25T23:27:20.948Z,5.60
2023-04-25T23:29:54.747Z,6.37
2023-04-25T23:32:22.400Z,5.37
2023-04-25T23:34:49.407Z,5.40
2023-04-25T23:37:16.621Z,6.37
2023-04-25T23:39:53.365Z,5.60
2023-04-25T23:42:20.626Z,6.03
2023-04-25T23:44:47.364Z,5.87
2023-04-25T23:47:17.513Z,5.43
2023-04-25T23:49:45.640Z,5.80
2023-04-25T23:52:13.097Z,5.20
2023-04-25T23:54:39.781Z,6.10
2023-04-25T23:57:07.146Z,6.37
2023-04-25T23:59:33.999Z,8.40
